createdAt,value
2022-11-08T00:01:34.687Z,9.73
2022-11-08T00:03:37.562Z,8.32
2022-11-08T00:05:57.900Z,7.78
2022-11-08T00:08:21.947Z,8.18
2022-11-08T00:10:42.066Z,7.63
2022-11-08T00:13:02.522Z,7.38
2022-11-08T00:15:06.369Z,7.20
2022-11-08T00:17:10.372Z,6.75
2022-11-08T00:19:12.939Z,7.47
2022-11-08T00:21:15.521Z,7.10
2022-11-08T00:23:18.103Z,7.18
2022-11-08T00:25:20.754Z,7.43
2022-11-08T00:27:25.141Z,8.63
2022-11-08T00:29:27.779Z,7.53
2022-11-08T00:31:30.367Z,7.20
2022-11-08T00:33:34.417Z,7.00
2022-11-08T00:35:37.037Z,6.35
2022-11-08T00:37:39.601Z,6.60
2022-11-08T00:39:42.251Z,6.57
2022-11-08T00:41:44.859Z,6.60
2022-11-08T00:43:47.579Z,6.05
2022-11-08T00:45:50.177Z,6.38
2022-11-08T00:47:52.770Z,6.38
2022-11-08T00:49:56.680Z,6.43
2022-11-08T00:51:59.319Z,6.95
2022-11-08T00:54:02.041Z,5.90
2022-11-08T00:56:06.416Z,5.80
2022-11-08T00:58:08.996Z,6.22
2022-11-08T01:00:15.000Z,6.00
2022-11-08T01:02:17.639Z,6.07
2022-11-08T01:04:20.778Z,6.72
2022-11-08T01:06:26.035Z,5.93
2022-11-08T01:08:28.635Z,5.65
2022-11-08T01:10:31.240Z,6.57
2022-11-08T01:12:33.858Z,6.80
2022-11-08T01:14:36.507Z,6.30
2022-11-08T01:16:39.151Z,6.28
2022-11-08T01:18:42.257Z,5.85
2022-11-08T01:20:46.390Z,7.53
2022-11-08T01:22:50.360Z,7.53
2022-11-08T01:24:52.963Z,7.63
2022-11-08T01:26:55.549Z,7.18
2022-11-08T01:28:58.895Z,6.68
2022-11-08T01:31:04.880Z,7.05
2022-11-08T01:33:08.456Z,7.60
2022-11-08T01:35:11.119Z,8.30
2022-11-08T01:37:13.745Z,7.93
2022-11-08T01:39:20.599Z,8.45
2022-11-08T01:41:25.669Z,8.52
2022-11-08T01:43:46.389Z,7.82
2022-11-08T01:46:30.614Z,9.18
2022-11-08T01:48:33.276Z,8.45
2022-11-08T01:50:35.883Z,8.80
2022-11-08T01:52:43.526Z,9.10
2022-11-08T01:54:54.186Z,9.55
2022-11-08T01:56:59.881Z,7.78
2022-11-08T01:59:06.019Z,8.45
2022-11-08T02:01:09.338Z,8.32
2022-11-08T02:03:15.113Z,8.70
2022-11-08T02:05:26.478Z,8.45
2022-11-08T02:07:31.799Z,8.25
2022-11-08T02:09:37.069Z,7.50
2022-11-08T02:11:41.599Z,7.80
2022-11-08T02:13:44.371Z,8.27
2022-11-08T02:15:47.279Z,8.75
2022-11-08T02:17:50.076Z,7.55
2022-11-08T02:19:52.707Z,7.63
2022-11-08T02:22:00.045Z,7.85
2022-11-08T02:24:09.109Z,6.85
2022-11-08T02:26:12.736Z,8.02
2022-11-08T02:28:16.560Z,7.40
2022-11-08T02:30:19.584Z,7.63
2022-11-08T02:32:22.303Z,7.07
2022-11-08T02:34:28.043Z,7.65
2022-11-08T02:36:32.065Z,7.82
2022-11-08T02:38:38.965Z,7.38
2022-11-08T02:40:49.969Z,7.60
2022-11-08T02:42:52.529Z,7.00
2022-11-08T02:44:55.127Z,6.50
2022-11-08T02:46:58.328Z,7.03
2022-11-08T02:49:00.923Z,7.88
2022-11-08T02:51:03.556Z,6.93
2022-11-08T02:53:06.895Z,6.47
2022-11-08T02:55:09.541Z,7.40
2022-11-08T02:57:13.546Z,6.97
2022-11-08T02:59:16.356Z,7.10
2022-11-08T03:01:18.985Z,6.18
2022-11-08T03:03:21.614Z,6.50
2022-11-08T03:05:25.231Z,5.90
2022-11-08T03:07:27.769Z,5.78
2022-11-08T03:09:30.335Z,6.38
2022-11-08T03:11:33.171Z,5.93
2022-11-08T03:13:37.078Z,5.80
2022-11-08T03:15:39.684Z,5.72
2022-11-08T03:17:42.286Z,5.53
2022-11-08T03:19:44.887Z,5.47
2022-11-08T03:21:47.455Z,5.80
2022-11-08T03:23:50.066Z,5.75
2022-11-08T03:25:52.639Z,6.15
2022-11-08T03:27:55.201Z,6.47
2022-11-08T03:29:59.126Z,6.10
2022-11-08T03:32:01.716Z,5.72
2022-11-08T03:34:04.341Z,5.72
2022-11-08T03:36:07.229Z,5.55
2022-11-08T03:38:09.848Z,5.90
2022-11-08T03:40:13.266Z,5.72
2022-11-08T03:42:15.850Z,5.38
2022-11-08T03:44:18.450Z,5.47
2022-11-08T03:46:22.482Z,5.45
2022-11-08T03:48:25.083Z,5.65
2022-11-08T03:50:27.772Z,4.97
2022-11-08T03:52:30.361Z,5.13
2022-11-08T03:54:32.949Z,4.97
2022-11-08T03:56:35.560Z,5.05
2022-11-08T03:58:38.284Z,4.97
2022-11-08T04:00:40.855Z,4.75
2022-11-08T04:02:45.439Z,5.05
2022-11-08T04:04:48.044Z,5.20
2022-11-08T04:06:50.581Z,5.28
2022-11-08T04:08:53.211Z,5.28
2022-11-08T04:10:56.419Z,5.13
2022-11-08T04:13:17.652Z,5.78
2022-11-08T04:15:22.497Z,6.30
2022-11-08T04:17:45.058Z,6.20
2022-11-08T04:20:06.653Z,6.65
2022-11-08T04:22:10.945Z,7.32
2022-11-08T04:24:13.921Z,6.43
2022-11-08T04:26:16.760Z,6.43
2022-11-08T04:28:19.593Z,7.10
2022-11-08T04:30:22.452Z,7.05
2022-11-08T04:32:25.535Z,7.40
2022-11-08T04:34:28.114Z,7.05
2022-11-08T04:36:32.051Z,5.90
2022-11-08T04:38:35.137Z,7.50
2022-11-08T04:40:37.792Z,7.10
2022-11-08T04:42:44.782Z,6.70
2022-11-08T04:44:47.414Z,6.18
2022-11-08T04:46:50.039Z,6.65
2022-11-08T04:48:54.315Z,6.38
2022-11-08T04:50:56.955Z,5.95
2022-11-08T04:53:01.276Z,5.70
2022-11-08T04:55:03.908Z,6.18
2022-11-08T04:57:06.543Z,7.20
2022-11-08T04:59:12.385Z,6.45
2022-11-08T05:01:16.919Z,6.97
2022-11-08T05:03:19.517Z,6.63
2022-11-08T05:05:22.910Z,5.57
2022-11-08T05:07:25.666Z,6.78
2022-11-08T05:09:29.708Z,6.13
2022-11-08T05:11:32.450Z,8.20
2022-11-08T05:13:35.960Z,6.72
2022-11-08T05:15:38.582Z,7.15
2022-11-08T05:17:41.205Z,7.43
2022-11-08T05:20:01.406Z,7.72
2022-11-08T05:22:21.383Z,6.63
2022-11-08T05:24:23.989Z,6.85
2022-11-08T05:26:28.822Z,6.55
2022-11-08T05:28:31.454Z,6.97
2022-11-08T05:30:34.033Z,7.25
2022-11-08T05:32:36.701Z,7.47
2022-11-08T05:34:39.364Z,7.35
2022-11-08T05:36:42.085Z,6.93
2022-11-08T05:38:44.904Z,7.07
2022-11-08T05:40:47.799Z,7.43
2022-11-08T05:42:54.117Z,11.40
2022-11-08T05:44:56.728Z,8.30
2022-11-08T05:46:59.332Z,8.35
2022-11-08T05:49:02.023Z,9.70
2022-11-08T05:51:05.103Z,9.23
2022-11-08T05:53:07.692Z,9.25
2022-11-08T05:55:10.723Z,8.52
2022-11-08T05:57:13.292Z,9.27
2022-11-08T05:59:17.280Z,10.40
2022-11-08T06:01:21.382Z,10.70
2022-11-08T06:03:24.227Z,11.10
2022-11-08T06:05:37.608Z,8.93
2022-11-08T06:07:40.245Z,9.15
2022-11-08T06:09:42.893Z,9.95
2022-11-08T06:11:45.508Z,8.55
2022-11-08T06:13:48.620Z,7.78
2022-11-08T06:15:52.555Z,8.38
2022-11-08T06:17:55.160Z,7.43
2022-11-08T06:19:57.786Z,7.68
2022-11-08T06:22:00.385Z,8.45
2022-11-08T06:24:02.965Z,7.25
2022-11-08T06:26:06.266Z,8.15
2022-11-08T06:28:08.901Z,7.65
2022-11-08T06:30:12.310Z,7.70
2022-11-08T06:32:16.311Z,7.88
2022-11-08T06:34:19.076Z,7.55
2022-11-08T06:36:21.826Z,7.85
2022-11-08T06:38:24.485Z,8.55
2022-11-08T06:40:27.560Z,7.70
2022-11-08T06:42:30.133Z,7.45
2022-11-08T06:44:32.708Z,8.07
2022-11-08T06:46:35.278Z,7.65
2022-11-08T06:48:39.230Z,8.43
2022-11-08T06:50:42.858Z,7.75
2022-11-08T06:52:45.512Z,7.68
2022-11-08T06:54:48.154Z,8.23
2022-11-08T06:56:50.718Z,8.10
2022-11-08T06:58:53.303Z,8.35
2022-11-08T07:00:55.952Z,7.68
2022-11-08T07:03:00.168Z,6.72
2022-11-08T07:05:04.408Z,7.25
2022-11-08T07:07:07.026Z,7.53
2022-11-08T07:09:10.028Z,7.10
2022-11-08T07:11:12.591Z,7.38
2022-11-08T07:13:15.939Z,6.45
2022-11-08T07:15:23.427Z,6.60
2022-11-08T07:17:26.102Z,6.88
2022-11-08T07:19:28.704Z,6.90
2022-11-08T07:21:32.853Z,6.57
2022-11-08T07:23:35.579Z,7.15
2022-11-08T07:25:38.536Z,7.47
2022-11-08T07:27:41.117Z,7.00
2022-11-08T07:29:43.724Z,6.95
2022-11-08T07:31:47.185Z,6.63
2022-11-08T07:33:49.784Z,6.65
2022-11-08T07:35:52.364Z,7.93
2022-11-08T07:37:56.742Z,7.40
2022-11-08T07:39:59.402Z,6.57
2022-11-08T07:42:01.992Z,6.82
2022-11-08T07:44:05.014Z,6.65
2022-11-08T07:46:07.835Z,6.53
2022-11-08T07:48:13.209Z,7.03
2022-11-08T07:50:18.004Z,6.60
2022-11-08T07:52:20.755Z,6.68
2022-11-08T07:54:24.710Z,6.82
2022-11-08T07:56:27.575Z,6.60
2022-11-08T07:58:30.153Z,7.13
2022-11-08T08:00:36.290Z,6.95
2022-11-08T08:02:39.018Z,6.80
2022-11-08T08:04:41.996Z,6.55
2022-11-08T08:06:44.620Z,8.55
2022-11-08T08:08:47.256Z,8.57
2022-11-08T08:10:51.402Z,9.85
2022-11-08T08:12:54.135Z,8.38
2022-11-08T08:14:56.781Z,7.90
2022-11-08T08:16:59.359Z,7.55
2022-11-08T08:19:01.934Z,7.20
2022-11-08T08:21:04.831Z,6.32
2022-11-08T08:23:07.809Z,7.60
2022-11-08T08:25:11.118Z,7.53
2022-11-08T08:27:15.491Z,7.32
2022-11-08T08:29:18.098Z,6.55
2022-11-08T08:31:20.763Z,7.22
2022-11-08T08:33:30.402Z,7.40
2022-11-08T08:35:36.436Z,8.27
2022-11-08T08:37:39.050Z,7.03
2022-11-08T08:39:41.632Z,6.57
2022-11-08T08:41:44.276Z,7.10
2022-11-08T08:43:48.207Z,6.70
2022-11-08T08:45:51.115Z,5.90
2022-11-08T08:47:54.690Z,6.20
2022-11-08T08:49:57.234Z,6.05
2022-11-08T08:51:59.875Z,6.57
2022-11-08T08:54:02.528Z,6.22
2022-11-08T08:56:05.818Z,5.78
2022-11-08T08:58:08.566Z,6.78
2022-11-08T09:02:39.887Z,6.78
2022-11-08T09:04:45.021Z,7.10
2022-11-08T09:06:47.720Z,6.75
2022-11-08T09:08:50.374Z,6.65
2022-11-08T09:10:56.430Z,6.75
2022-11-08T09:12:59.057Z,6.72
2022-11-08T09:15:02.062Z,6.15
2022-11-08T09:17:05.975Z,6.35
2022-11-08T09:19:08.585Z,7.10
2022-11-08T09:21:11.189Z,6.75
2022-11-08T09:23:15.060Z,6.03
2022-11-08T09:25:17.931Z,6.97
2022-11-08T09:27:20.558Z,5.85
2022-11-08T09:29:23.150Z,6.07
2022-11-08T09:31:25.767Z,6.50
2022-11-08T09:33:30.154Z,6.40
2022-11-08T09:35:33.494Z,6.22
2022-11-08T09:37:36.131Z,5.80
2022-11-08T09:39:38.780Z,6.20
2022-11-08T09:42:00.846Z,5.45
2022-11-08T09:46:25.734Z,5.38
2022-11-08T09:48:33.261Z,5.50
2022-11-08T09:50:40.455Z,5.75
2022-11-08T09:52:46.690Z,4.95
2022-11-08T09:54:51.567Z,5.63
2022-11-08T09:56:55.651Z,5.53
2022-11-08T09:59:02.200Z,5.82
2022-11-08T10:01:07.693Z,5.78
2022-11-08T10:03:15.614Z,5.57
2022-11-08T10:05:21.311Z,5.03
2022-11-08T10:07:33.471Z,5.28
2022-11-08T10:09:51.795Z,5.38
2022-11-08T10:12:10.376Z,5.38
2022-11-08T10:14:26.512Z,5.07
2022-11-08T10:16:37.850Z,5.07
2022-11-08T10:19:05.925Z,5.05
2022-11-08T10:21:23.967Z,5.03
2022-11-08T10:23:41.819Z,5.22
2022-11-08T10:25:47.686Z,5.07
2022-11-08T10:27:53.893Z,5.20
2022-11-08T10:30:02.626Z,5.60
2022-11-08T10:32:15.404Z,4.53
2022-11-08T10:34:21.354Z,4.50
2022-11-08T10:36:29.541Z,4.60
2022-11-08T10:38:36.987Z,4.10
2022-11-08T10:40:46.580Z,3.40
2022-11-08T10:42:57.500Z,3.72
2022-11-08T10:45:00.376Z,3.63
2022-11-08T10:47:05.247Z,3.60
2022-11-08T10:49:20.644Z,3.60
2022-11-08T10:51:23.259Z,3.72
2022-11-08T10:53:30.456Z,3.80
2022-11-08T10:55:38.335Z,3.70
2022-11-08T10:57:45.199Z,3.92
2022-11-08T10:59:47.969Z,4.25
2022-11-08T11:01:51.734Z,3.28
2022-11-08T11:03:54.919Z,3.50
2022-11-08T11:06:00.785Z,3.13
2022-11-08T11:08:17.382Z,3.50
2022-11-08T11:10:26.999Z,3.90
2022-11-08T11:12:29.583Z,3.67
2022-11-08T11:14:32.229Z,3.05
2022-11-08T11:16:36.599Z,2.83
2022-11-08T11:18:46.563Z,3.30
2022-11-08T11:20:59.921Z,3.78
2022-11-08T11:23:02.652Z,4.10
2022-11-08T11:25:15.514Z,6.88
2022-11-08T11:27:24.886Z,5.70
2022-11-08T11:29:29.824Z,4.50
2022-11-08T11:31:34.090Z,4.55
2022-11-08T11:33:45.006Z,4.20
2022-11-08T11:35:50.878Z,4.43
2022-11-08T11:37:56.624Z,4.15
2022-11-08T11:40:05.727Z,4.20
2022-11-08T11:42:43.988Z,4.15
2022-11-08T11:44:59.408Z,3.75
2022-11-08T11:47:06.311Z,4.10
2022-11-08T11:49:18.703Z,4.20
2022-11-08T11:51:21.828Z,4.55
2022-11-08T11:53:27.828Z,3.78
2022-11-08T11:55:50.806Z,3.80
2022-11-08T11:58:05.802Z,4.22
2022-11-08T12:00:12.853Z,3.80
2022-11-08T12:02:49.963Z,3.80
2022-11-08T12:05:13.143Z,3.45
2022-11-08T12:07:22.900Z,3.15
2022-11-08T12:09:38.595Z,3.58
2022-11-08T12:11:52.746Z,3.58
2022-11-08T12:14:13.210Z,3.08
2022-11-08T12:16:22.846Z,2.75
2022-11-08T12:18:51.509Z,3.20
2022-11-08T12:21:04.637Z,2.95
2022-11-08T12:23:37.303Z,2.85
2022-11-08T12:25:51.731Z,3.15
2022-11-08T12:28:01.254Z,2.88
2022-11-08T12:30:09.982Z,2.85
2022-11-08T12:32:33.797Z,3.17
2022-11-08T12:34:49.516Z,3.10
2022-11-08T12:37:03.279Z,3.30
2022-11-08T12:39:20.605Z,3.10
2022-11-08T12:41:37.771Z,3.20
2022-11-08T12:43:52.842Z,3.20
2022-11-08T12:46:03.592Z,3.20
2022-11-08T12:48:16.747Z,3.08
2022-11-08T12:50:28.612Z,3.30
2022-11-08T12:52:48.296Z,3.65
2022-11-08T12:54:54.655Z,3.30
2022-11-08T12:57:02.379Z,2.97
2022-11-08T12:59:10.817Z,3.63
2022-11-08T13:01:15.715Z,3.22
2022-11-08T13:03:47.098Z,3.20
2022-11-08T13:05:59.879Z,3.20
2022-11-08T13:08:09.623Z,3.67
2022-11-08T13:10:30.209Z,2.88
2022-11-08T13:12:45.355Z,2.97
2022-11-08T13:14:48.266Z,2.30
2022-11-08T13:17:22.888Z,2.85
2022-11-08T13:19:30.635Z,3.20
2022-11-08T13:21:39.575Z,2.70
2022-11-08T13:23:42.220Z,3.00
2022-11-08T13:25:45.266Z,2.40
2022-11-08T13:27:48.507Z,3.10
2022-11-08T13:29:51.840Z,3.30
2022-11-08T13:31:59.973Z,3.03
2022-11-08T13:34:21.867Z,2.50
2022-11-08T13:36:37.183Z,3.53
2022-11-08T13:38:49.305Z,2.60
2022-11-08T13:41:15.927Z,2.78
2022-11-08T13:43:25.142Z,3.30
2022-11-08T13:45:32.384Z,2.90
2022-11-08T13:47:54.228Z,2.70
2022-11-08T13:50:41.118Z,3.00
2022-11-08T13:52:47.679Z,3.00
2022-11-08T13:54:52.812Z,3.30
2022-11-08T13:56:56.479Z,3.28
2022-11-08T13:58:59.190Z,3.13
2022-11-08T14:01:04.710Z,3.30
2022-11-08T14:03:40.613Z,3.13
2022-11-08T14:05:49.415Z,3.50
2022-11-08T14:08:17.196Z,3.30
2022-11-08T14:10:26.383Z,3.38
2022-11-08T14:12:35.232Z,3.28
2022-11-08T14:14:43.244Z,3.40
2022-11-08T14:16:54.682Z,3.80
2022-11-08T14:19:17.466Z,4.03
2022-11-08T14:21:21.091Z,3.53
2022-11-08T14:23:28.681Z,3.58
2022-11-08T14:25:35.248Z,4.20
2022-11-08T14:27:41.317Z,3.83
2022-11-08T14:29:43.963Z,3.83
2022-11-08T14:31:47.396Z,4.00
2022-11-08T14:33:50.650Z,3.50
2022-11-08T14:35:55.983Z,4.10
2022-11-08T14:37:58.816Z,3.22
2022-11-08T14:40:02.925Z,4.10
2022-11-08T14:42:14.107Z,3.72
2022-11-08T14:44:18.802Z,3.40
2022-11-08T14:46:29.410Z,3.50
2022-11-08T14:48:32.184Z,3.47
2022-11-08T14:50:36.044Z,4.00
2022-11-08T14:52:38.769Z,4.25
2022-11-08T14:54:43.713Z,4.40
2022-11-08T14:56:50.240Z,4.50
2022-11-08T14:58:54.259Z,4.88
2022-11-08T15:00:57.496Z,4.30
2022-11-08T15:03:03.678Z,4.60
2022-11-08T15:05:33.159Z,3.88
2022-11-08T15:07:35.837Z,3.40
2022-11-08T15:09:39.218Z,3.13
2022-11-08T15:11:43.747Z,3.67
2022-11-08T15:13:53.182Z,3.63
2022-11-08T15:16:01.288Z,2.90
2022-11-08T15:18:12.663Z,3.22
2022-11-08T15:20:21.741Z,5.05
2022-11-08T15:22:26.974Z,4.32
2022-11-08T15:24:36.513Z,3.25
2022-11-08T15:26:40.483Z,2.60
2022-11-08T15:28:43.035Z,2.72
2022-11-08T15:30:51.647Z,3.20
2022-11-08T15:32:54.348Z,3.30
2022-11-08T15:34:58.571Z,2.53
2022-11-08T15:37:01.324Z,2.40
2022-11-08T15:39:07.049Z,2.83
2022-11-08T15:41:31.463Z,2.55
2022-11-08T15:43:41.113Z,2.83
2022-11-08T15:45:55.017Z,2.38
2022-11-08T15:48:10.932Z,2.92
2022-11-08T15:50:16.565Z,2.65
2022-11-08T15:52:21.484Z,2.47
2022-11-08T15:54:25.890Z,2.65
2022-11-08T15:56:28.521Z,2.65
2022-11-08T15:58:32.563Z,2.92
2022-11-08T16:00:36.347Z,3.40
2022-11-08T16:02:40.332Z,3.08
2022-11-08T16:04:43.018Z,3.17
2022-11-08T16:06:45.847Z,3.17
2022-11-08T16:08:48.486Z,2.65
2022-11-08T16:10:53.739Z,2.85
2022-11-08T16:12:58.752Z,3.58
2022-11-08T16:15:01.403Z,3.22
2022-11-08T16:17:04.299Z,3.47
2022-11-08T16:19:18.031Z,3.13
2022-11-08T16:21:20.636Z,3.50
2022-11-08T16:23:23.224Z,3.30
2022-11-08T16:25:27.898Z,3.08
2022-11-08T16:27:30.579Z,2.83
2022-11-08T16:29:34.887Z,3.00
2022-11-08T16:31:37.462Z,2.72
2022-11-08T16:33:40.286Z,2.83
2022-11-08T16:35:44.288Z,2.70
2022-11-08T16:37:47.477Z,3.67
2022-11-08T16:39:50.048Z,2.67
2022-11-08T16:41:52.767Z,3.05
2022-11-08T16:43:56.432Z,4.18
2022-11-08T16:46:05.515Z,3.30
2022-11-08T16:48:17.348Z,3.20
2022-11-08T16:50:22.146Z,2.92
2022-11-08T16:52:26.104Z,2.90
2022-11-08T16:54:29.248Z,3.25
2022-11-08T16:56:31.950Z,3.15
2022-11-08T16:58:34.590Z,3.35
2022-11-08T17:00:38.333Z,2.72
2022-11-08T17:02:44.425Z,2.78
2022-11-08T17:04:47.023Z,3.13
2022-11-08T17:06:49.684Z,3.30
2022-11-08T17:08:53.619Z,3.58
2022-11-08T17:10:56.542Z,3.40
2022-11-08T17:12:59.182Z,3.00
2022-11-08T17:15:01.913Z,3.20
2022-11-08T17:17:04.551Z,4.13
2022-11-08T17:19:07.197Z,3.70
2022-11-08T17:21:38.221Z,3.55
2022-11-08T17:23:33.800Z,3.50
2022-11-08T17:25:39.814Z,3.80
2022-11-08T17:27:43.288Z,3.42
2022-11-08T17:29:45.892Z,3.55
2022-11-08T17:31:48.822Z,3.85
2022-11-08T17:33:51.557Z,3.63
2022-11-08T17:35:54.135Z,3.75
2022-11-08T17:37:56.700Z,3.90
2022-11-08T17:39:59.699Z,4.10
2022-11-08T17:42:03.734Z,3.90
2022-11-08T17:44:06.514Z,3.78
2022-11-08T17:46:10.763Z,3.90
2022-11-08T17:48:13.354Z,3.88
2022-11-08T17:50:15.966Z,4.20
2022-11-08T17:52:19.608Z,3.60
2022-11-08T17:54:22.203Z,4.78
2022-11-08T17:56:24.858Z,3.90
2022-11-08T17:58:29.199Z,4.05
2022-11-08T18:00:34.782Z,4.28
2022-11-08T18:02:37.474Z,3.42
2022-11-08T18:04:40.464Z,4.40
2022-11-08T18:06:43.296Z,4.22
2022-11-08T18:08:45.971Z,4.20
2022-11-08T18:10:48.855Z,4.50
2022-11-08T18:12:51.442Z,4.30
2022-11-08T18:14:55.412Z,4.53
2022-11-08T18:16:58.181Z,4.82
2022-11-08T18:19:00.825Z,4.50
2022-11-08T18:21:03.389Z,4.20
2022-11-08T18:23:06.194Z,4.50
2022-11-08T18:25:09.431Z,5.00
2022-11-08T18:27:12.065Z,4.95
2022-11-08T18:29:14.759Z,5.15
2022-11-08T18:31:20.426Z,5.93
2022-11-08T18:33:23.101Z,5.63
2022-11-08T18:35:27.884Z,5.65
2022-11-08T18:37:30.537Z,5.80
2022-11-08T18:39:33.103Z,7.30
2022-11-08T18:41:35.718Z,6.60
2022-11-08T18:43:38.768Z,6.93
2022-11-08T18:45:41.373Z,6.55
2022-11-08T18:47:45.363Z,5.40
2022-11-08T18:49:47.951Z,5.18
2022-11-08T18:51:52.655Z,4.72
2022-11-08T18:53:55.571Z,4.72
2022-11-08T18:55:58.486Z,4.07
2022-11-08T18:58:01.099Z,6.07
2022-11-08T19:00:05.156Z,5.15
2022-11-08T19:02:07.781Z,5.13
2022-11-08T19:04:11.733Z,6.03
2022-11-08T19:06:14.424Z,5.45
2022-11-08T19:08:18.531Z,5.72
2022-11-08T19:10:21.298Z,5.47
2022-11-08T19:12:24.171Z,6.18
2022-11-08T19:14:27.000Z,6.80
2022-11-08T19:16:29.879Z,6.60
2022-11-08T19:18:33.701Z,7.28
2022-11-08T19:20:37.656Z,7.35
2022-11-08T19:22:40.251Z,6.45
2022-11-08T19:24:45.491Z,6.38
2022-11-08T19:26:48.156Z,6.18
2022-11-08T19:28:55.261Z,6.03
2022-11-08T19:30:57.854Z,6.70
2022-11-08T19:33:00.944Z,7.20
2022-11-08T19:35:06.542Z,8.52
2022-11-08T19:37:10.511Z,8.82
2022-11-08T19:39:13.842Z,9.52
2022-11-08T19:41:18.432Z,9.73
2022-11-08T19:43:21.439Z,9.38
2022-11-08T19:45:24.196Z,10.30
2022-11-08T19:47:26.799Z,9.90
2022-11-08T19:49:30.671Z,9.63
2022-11-08T19:51:34.984Z,9.98
2022-11-08T19:53:38.940Z,9.45
2022-11-08T19:55:41.532Z,10.70
2022-11-08T19:57:44.182Z,10.70
2022-11-08T19:59:46.787Z,9.55
2022-11-08T20:01:49.492Z,8.80
2022-11-08T20:03:52.418Z,8.25
2022-11-08T20:05:55.324Z,8.52
2022-11-08T20:07:57.959Z,7.18
2022-11-08T20:10:02.007Z,6.38
2022-11-08T20:12:05.735Z,7.32
2022-11-08T20:14:09.267Z,7.00
2022-11-08T20:16:13.668Z,7.55
2022-11-08T20:18:16.760Z,7.40
2022-11-08T20:20:20.133Z,8.07
2022-11-08T20:22:22.701Z,7.57
2022-11-08T20:24:25.376Z,6.78
2022-11-08T20:26:29.369Z,6.45
2022-11-08T20:28:32.678Z,7.20
2022-11-08T20:30:35.379Z,7.13
2022-11-08T20:32:38.011Z,8.05
2022-11-08T20:34:41.306Z,7.40
2022-11-08T20:36:44.846Z,7.28
2022-11-08T20:38:47.472Z,6.80
2022-11-08T20:40:50.040Z,7.20
2022-11-08T20:42:56.313Z,6.68
2022-11-08T20:44:58.889Z,7.63
2022-11-08T20:47:06.251Z,7.03
2022-11-08T20:49:09.789Z,6.95
2022-11-08T20:51:13.721Z,7.43
2022-11-08T20:53:16.314Z,8.13
2022-11-08T20:55:18.923Z,7.28
2022-11-08T20:57:21.701Z,7.97
2022-11-08T20:59:25.690Z,9.95
2022-11-08T21:01:30.570Z,9.60
2022-11-08T21:03:33.624Z,9.80
2022-11-08T21:05:36.219Z,9.65
2022-11-08T21:10:27.552Z,9.05
2022-11-08T21:12:23.970Z,7.85
2022-11-08T21:14:28.125Z,6.97
2022-11-08T21:16:42.421Z,7.38
2022-11-08T21:18:49.942Z,7.50
2022-11-08T21:21:02.415Z,6.78
2022-11-08T21:23:05.113Z,7.55
2022-11-08T21:25:08.213Z,7.88
2022-11-08T21:27:11.740Z,7.35
2022-11-08T21:29:14.462Z,8.27
2022-11-08T21:31:18.587Z,7.28
2022-11-08T21:33:21.378Z,7.75
2022-11-08T21:35:24.205Z,6.95
2022-11-08T21:37:26.857Z,7.25
2022-11-08T21:39:29.477Z,7.80
2022-11-08T21:41:33.801Z,7.97
2022-11-08T21:43:42.919Z,7.38
2022-11-08T21:45:46.068Z,7.65
2022-11-08T21:47:51.762Z,7.80
2022-11-08T21:49:54.657Z,7.07
2022-11-08T21:51:57.326Z,6.82
2022-11-08T21:54:00.416Z,7.20
2022-11-08T21:56:03.198Z,6.75
2022-11-08T21:58:05.802Z,7.82
2022-11-08T22:00:11.236Z,7.93
2022-11-08T22:02:16.912Z,8.13
2022-11-08T22:04:20.822Z,7.43
2022-11-08T22:06:23.954Z,7.70
2022-11-08T22:08:26.563Z,8.35
2022-11-08T22:10:29.179Z,8.27
2022-11-08T22:12:32.128Z,8.23
2022-11-08T22:14:34.768Z,8.38
2022-11-08T22:16:37.470Z,8.18
2022-11-08T22:19:03.743Z,7.97
2022-11-08T22:21:21.553Z,8.75
2022-11-08T22:23:24.165Z,8.00
2022-11-08T22:25:26.758Z,8.82
2022-11-08T22:27:29.358Z,7.72
2022-11-08T22:29:32.099Z,7.85
2022-11-08T22:31:34.759Z,8.65
2022-11-08T22:33:37.311Z,9.23
2022-11-08T22:35:39.852Z,8.57
2022-11-08T22:37:43.737Z,8.07
2022-11-08T22:39:46.274Z,6.88
2022-11-08T22:41:50.590Z,6.68
2022-11-08T22:43:53.689Z,7.30
2022-11-08T22:45:56.315Z,7.78
2022-11-08T22:47:58.884Z,7.75
2022-11-08T22:50:01.588Z,8.35
2022-11-08T22:52:04.192Z,7.82
2022-11-08T22:54:08.720Z,7.72
2022-11-08T22:56:12.151Z,8.25
2022-11-08T22:58:14.841Z,8.18
2022-11-08T23:00:18.021Z,7.97
2022-11-08T23:02:20.590Z,7.55
2022-11-08T23:04:23.186Z,8.68
2022-11-08T23:06:25.997Z,9.00
2022-11-08T23:08:29.136Z,8.60
2022-11-08T23:10:53.064Z,9.25
2022-11-08T23:13:13.214Z,9.50
2022-11-08T23:15:33.414Z,9.45
2022-11-08T23:17:35.957Z,8.68
2022-11-08T23:19:55.957Z,9.45
2022-11-08T23:22:30.577Z,9.68
2022-11-08T23:24:33.730Z,9.65
2022-11-08T23:26:55.294Z,9.82
2022-11-08T23:29:15.531Z,9.25
2022-11-08T23:31:32.033Z,8.85
2022-11-08T23:33:34.570Z,8.80
2022-11-08T23:35:37.159Z,9.63
2022-11-08T23:37:43.293Z,9.05
2022-11-08T23:39:59.895Z,9.65
2022-11-08T23:42:26.590Z,9.35
2022-11-08T23:44:29.282Z,10.07
2022-11-08T23:46:31.888Z,9.05
2022-11-08T23:48:34.639Z,9.93
2022-11-08T23:50:37.254Z,9.52
2022-11-08T23:52:39.908Z,9.43
2022-11-08T23:54:42.533Z,9.02
2022-11-08T23:56:45.660Z,9.10
2022-11-08T23:58:49.583Z,9.73
